Irura, Spain
Current Conditions -  °F | °C
As of 6:00 PM on Thursday 23 Oct 2014 (Local Time) from LESO Reporting Station
Clear Clear  
Wind Chill: 66°   Ceiling: Unl
Heat Index: 66°   Visibility: 6mi
Dew Point: 54°   Wind: 2mph
Humidity: 64%   Direction: NA
Pressure: 30.18"   Gusts: NA
Location:  43.17°N, 2.07°W
Report Text: LESO 231600Z VRB02KT CAVOK 19/12 Q1022
Loading
Personal Weather Stations






























Interactive Weather Map
Tropical Storm Tracking
New forecast layout! Learn more

10-Day Weather Forecast

Advertisements
Track Severe Weather on mobile